sensor_id;sensor_type;location;lat;lon;timestamp;P1;durP1;ratioP1;P2;durP2;ratioP2
1366;SDS011;16877;48.810;9.282;2023-05-29T00:02:24;8.20;;;6.43;;
1366;SDS011;16877;48.810;9.282;2023-05-29T00:04:52;8.73;;;7.30;;
1366;SDS011;16877;48.810;9.282;2023-05-29T00:07:19;8.20;;;6.37;;
1366;SDS011;16877;48.810;9.282;2023-05-29T00:09:48;7.60;;;6.73;;
1366;SDS011;16877;48.810;9.282;2023-05-29T00:12:15;6.93;;;6.23;;
1366;SDS011;16877;48.810;9.282;2023-05-29T00:14:44;7.43;;;6.30;;
1366;SDS011;16877;48.810;9.282;2023-05-29T00:17:13;7.10;;;6.20;;
1366;SDS011;16877;48.810;9.282;2023-05-29T00:19:40;6.90;;;5.80;;
1366;SDS011;16877;48.810;9.282;2023-05-29T00:22:10;7.27;;;6.57;;
1366;SDS011;16877;48.810;9.282;2023-05-29T00:24:37;7.37;;;5.90;;
1366;SDS011;16877;48.810;9.282;2023-05-29T00:27:05;7.90;;;6.33;;
1366;SDS011;16877;48.810;9.282;2023-05-29T00:29:33;7.80;;;6.57;;
1366;SDS011;16877;48.810;9.282;2023-05-29T00:32:00;7.70;;;6.47;;
1366;SDS011;16877;48.810;9.282;2023-05-29T00:34:30;7.30;;;5.83;;
1366;SDS011;16877;48.810;9.282;2023-05-29T00:36:57;7.30;;;6.40;;
1366;SDS011;16877;48.810;9.282;2023-05-29T00:39:25;7.20;;;6.50;;
1366;SDS011;16877;48.810;9.282;2023-05-29T00:41:52;7.00;;;6.30;;
1366;SDS011;16877;48.810;9.282;2023-05-29T00:44:20;7.70;;;5.70;;
1366;SDS011;16877;48.810;9.282;2023-05-29T00:46:49;7.13;;;6.40;;
1366;SDS011;16877;48.810;9.282;2023-05-29T00:49:19;6.70;;;5.67;;
1366;SDS011;16877;48.810;9.282;2023-05-29T00:51:50;7.93;;;6.27;;
1366;SDS011;16877;48.810;9.282;2023-05-29T00:54:20;8.03;;;6.47;;
1366;SDS011;16877;48.810;9.282;2023-05-29T00:56:49;10.83;;;6.57;;
1366;SDS011;16877;48.810;9.282;2023-05-29T00:59:17;7.20;;;6.10;;
1366;SDS011;16877;48.810;9.282;2023-05-29T01:01:47;7.63;;;5.50;;
1366;SDS011;16877;48.810;9.282;2023-05-29T01:04:15;6.77;;;5.97;;
1366;SDS011;16877;48.810;9.282;2023-05-29T01:06:43;7.30;;;5.43;;
1366;SDS011;16877;48.810;9.282;2023-05-29T01:09:12;8.30;;;5.70;;
1366;SDS011;16877;48.810;9.282;2023-05-29T01:11:44;5.50;;;4.80;;
1366;SDS011;16877;48.810;9.282;2023-05-29T01:14:21;6.50;;;5.70;;
1366;SDS011;16877;48.810;9.282;2023-05-29T01:16:54;7.10;;;4.97;;
1366;SDS011;16877;48.810;9.282;2023-05-29T01:19:30;8.13;;;5.80;;
1366;SDS011;16877;48.810;9.282;2023-05-29T01:22:12;7.57;;;5.90;;
1366;SDS011;16877;48.810;9.282;2023-05-29T01:24:55;8.97;;;5.60;;
1366;SDS011;16877;48.810;9.282;2023-05-29T01:27:36;6.00;;;5.17;;
1366;SDS011;16877;48.810;9.282;2023-05-29T01:30:06;6.00;;;5.00;;
1366;SDS011;16877;48.810;9.282;2023-05-29T01:32:35;6.20;;;5.40;;
1366;SDS011;16877;48.810;9.282;2023-05-29T01:35:04;5.80;;;5.20;;
1366;SDS011;16877;48.810;9.282;2023-05-29T01:37:32;8.47;;;5.10;;
1366;SDS011;16877;48.810;9.282;2023-05-29T01:40:00;8.10;;;5.30;;
1366;SDS011;16877;48.810;9.282;2023-05-29T01:42:28;5.93;;;4.83;;
1366;SDS011;16877;48.810;9.282;2023-05-29T01:44:57;8.00;;;6.10;;
1366;SDS011;16877;48.810;9.282;2023-05-29T01:47:25;6.60;;;5.43;;
1366;SDS011;16877;48.810;9.282;2023-05-29T01:49:53;6.50;;;5.80;;
1366;SDS011;16877;48.810;9.282;2023-05-29T01:52:22;6.67;;;5.00;;
1366;SDS011;16877;48.810;9.282;2023-05-29T01:54:50;7.17;;;5.03;;
1366;SDS011;16877;48.810;9.282;2023-05-29T01:57:17;7.67;;;5.40;;
1366;SDS011;16877;48.810;9.282;2023-05-29T01:59:45;6.70;;;5.30;;
1366;SDS011;16877;48.810;9.282;2023-05-29T02:02:15;7.27;;;4.83;;
1366;SDS011;16877;48.810;9.282;2023-05-29T02:04:43;6.63;;;4.70;;
1366;SDS011;16877;48.810;9.282;2023-05-29T02:07:10;6.23;;;4.93;;
1366;SDS011;16877;48.810;9.282;2023-05-29T02:09:40;6.27;;;5.07;;
1366;SDS011;16877;48.810;9.282;2023-05-29T02:12:08;5.60;;;4.80;;
1366;SDS011;16877;48.810;9.282;2023-05-29T02:14:35;7.13;;;4.90;;
1366;SDS011;16877;48.810;9.282;2023-05-29T02:17:06;7.37;;;5.37;;
1366;SDS011;16877;48.810;9.282;2023-05-29T02:19:36;7.37;;;4.53;;
1366;SDS011;16877;48.810;9.282;2023-05-29T02:22:03;5.63;;;4.67;;
1366;SDS011;16877;48.810;9.282;2023-05-29T02:24:31;5.50;;;4.40;;
1366;SDS011;16877;48.810;9.282;2023-05-29T02:27:00;5.87;;;5.10;;
1366;SDS011;16877;48.810;9.282;2023-05-29T02:29:28;4.90;;;4.40;;
1366;SDS011;16877;48.810;9.282;2023-05-29T02:31:55;5.60;;;4.47;;
1366;SDS011;16877;48.810;9.282;2023-05-29T02:34:22;6.47;;;4.50;;
1366;SDS011;16877;48.810;9.282;2023-05-29T02:36:52;5.07;;;4.07;;
1366;SDS011;16877;48.810;9.282;2023-05-29T02:39:19;7.03;;;5.13;;
1366;SDS011;16877;48.810;9.282;2023-05-29T02:41:48;6.60;;;4.60;;
1366;SDS011;16877;48.810;9.282;2023-05-29T02:44:16;5.03;;;4.50;;
1366;SDS011;16877;48.810;9.282;2023-05-29T02:46:43;8.23;;;4.30;;
1366;SDS011;16877;48.810;9.282;2023-05-29T02:49:11;6.43;;;4.83;;
1366;SDS011;16877;48.810;9.282;2023-05-29T02:51:38;6.43;;;4.80;;
1366;SDS011;16877;48.810;9.282;2023-05-29T02:54:07;4.73;;;3.90;;
1366;SDS011;16877;48.810;9.282;2023-05-29T02:56:37;5.80;;;4.37;;
1366;SDS011;16877;48.810;9.282;2023-05-29T02:59:05;6.97;;;4.33;;
1366;SDS011;16877;48.810;9.282;2023-05-29T03:01:32;5.30;;;4.70;;
1366;SDS011;16877;48.810;9.282;2023-05-29T03:04:00;4.80;;;4.00;;
1366;SDS011;16877;48.810;9.282;2023-05-29T03:06:27;4.93;;;4.20;;
1366;SDS011;16877;48.810;9.282;2023-05-29T03:09:11;5.03;;;4.10;;
1366;SDS011;16877;48.810;9.282;2023-05-29T03:11:39;5.80;;;4.53;;
1366;SDS011;16877;48.810;9.282;2023-05-29T03:14:10;6.00;;;4.17;;
1366;SDS011;16877;48.810;9.282;2023-05-29T03:16:37;6.73;;;4.53;;
1366;SDS011;16877;48.810;9.282;2023-05-29T03:19:07;5.43;;;4.60;;
1366;SDS011;16877;48.810;9.282;2023-05-29T03:21:35;5.83;;;4.37;;
1366;SDS011;16877;48.810;9.282;2023-05-29T03:24:14;6.07;;;4.60;;
1366;SDS011;16877;48.810;9.282;2023-05-29T03:26:41;7.60;;;5.17;;
1366;SDS011;16877;48.810;9.282;2023-05-29T03:29:09;6.00;;;4.17;;
1366;SDS011;16877;48.810;9.282;2023-05-29T03:31:36;4.60;;;3.90;;
1366;SDS011;16877;48.810;9.282;2023-05-29T03:34:08;5.30;;;4.53;;
1366;SDS011;16877;48.810;9.282;2023-05-29T03:36:35;4.97;;;4.10;;
1366;SDS011;16877;48.810;9.282;2023-05-29T03:39:02;8.80;;;4.70;;
1366;SDS011;16877;48.810;9.282;2023-05-29T03:41:32;7.00;;;5.00;;
1366;SDS011;16877;48.810;9.282;2023-05-29T03:43:59;5.83;;;4.77;;
1366;SDS011;16877;48.810;9.282;2023-05-29T03:46:27;7.00;;;4.93;;
1366;SDS011;16877;48.810;9.282;2023-05-29T03:48:54;6.40;;;5.23;;
1366;SDS011;16877;48.810;9.282;2023-05-29T03:51:22;6.77;;;4.50;;
1366;SDS011;16877;48.810;9.282;2023-05-29T03:53:49;6.20;;;4.80;;
1366;SDS011;16877;48.810;9.282;2023-05-29T03:56:17;4.83;;;4.27;;
1366;SDS011;16877;48.810;9.282;2023-05-29T03:59:01;5.73;;;4.87;;
1366;SDS011;16877;48.810;9.282;2023-05-29T04:01:29;7.27;;;5.07;;
1366;SDS011;16877;48.810;9.282;2023-05-29T04:03:56;5.27;;;4.40;;
1366;SDS011;16877;48.810;9.282;2023-05-29T04:06:23;5.13;;;4.33;;
1366;SDS011;16877;48.810;9.282;2023-05-29T04:08:51;5.13;;;4.60;;
1366;SDS011;16877;48.810;9.282;2023-05-29T04:11:19;6.20;;;4.80;;
1366;SDS011;16877;48.810;9.282;2023-05-29T04:13:47;4.93;;;4.10;;
1366;SDS011;16877;48.810;9.282;2023-05-29T04:16:16;6.20;;;4.77;;
1366;SDS011;16877;48.810;9.282;2023-05-29T04:18:44;6.60;;;4.83;;
1366;SDS011;16877;48.810;9.282;2023-05-29T04:21:11;7.27;;;4.60;;
1366;SDS011;16877;48.810;9.282;2023-05-29T04:23:39;5.83;;;4.50;;
1366;SDS011;16877;48.810;9.282;2023-05-29T04:26:06;6.43;;;4.87;;
1366;SDS011;16877;48.810;9.282;2023-05-29T04:28:35;5.13;;;4.37;;
1366;SDS011;16877;48.810;9.282;2023-05-29T04:31:03;5.83;;;4.30;;
1366;SDS011;16877;48.810;9.282;2023-05-29T04:33:32;7.50;;;4.80;;
1366;SDS011;16877;48.810;9.282;2023-05-29T04:36:01;5.63;;;4.80;;
1366;SDS011;16877;48.810;9.282;2023-05-29T04:38:30;6.10;;;5.20;;
1366;SDS011;16877;48.810;9.282;2023-05-29T04:40:57;7.90;;;4.13;;
1366;SDS011;16877;48.810;9.282;2023-05-29T04:43:25;6.17;;;4.97;;
1366;SDS011;16877;48.810;9.282;2023-05-29T04:45:53;6.90;;;4.60;;
1366;SDS011;16877;48.810;9.282;2023-05-29T04:48:20;6.77;;;5.20;;
1366;SDS011;16877;48.810;9.282;2023-05-29T04:50:50;5.40;;;4.47;;
1366;SDS011;16877;48.810;9.282;2023-05-29T04:53:17;4.30;;;3.87;;
1366;SDS011;16877;48.810;9.282;2023-05-29T04:55:45;5.43;;;4.33;;
1366;SDS011;16877;48.810;9.282;2023-05-29T04:58:12;7.27;;;4.60;;
1366;SDS011;16877;48.810;9.282;2023-05-29T05:00:39;5.63;;;4.60;;
1366;SDS011;16877;48.810;9.282;2023-05-29T05:03:08;6.47;;;4.43;;
1366;SDS011;16877;48.810;9.282;2023-05-29T05:05:52;7.70;;;5.53;;
1366;SDS011;16877;48.810;9.282;2023-05-29T05:08:21;6.00;;;4.73;;
1366;SDS011;16877;48.810;9.282;2023-05-29T05:10:48;5.40;;;4.80;;
1366;SDS011;16877;48.810;9.282;2023-05-29T05:13:17;5.67;;;4.60;;
1366;SDS011;16877;48.810;9.282;2023-05-29T05:15:45;6.03;;;4.40;;
1366;SDS011;16877;48.810;9.282;2023-05-29T05:18:12;5.83;;;4.60;;
1366;SDS011;16877;48.810;9.282;2023-05-29T05:20:39;6.97;;;4.93;;
1366;SDS011;16877;48.810;9.282;2023-05-29T05:23:08;5.80;;;4.70;;
1366;SDS011;16877;48.810;9.282;2023-05-29T05:25:39;5.43;;;4.57;;
1366;SDS011;16877;48.810;9.282;2023-05-29T05:28:07;5.27;;;4.70;;
1366;SDS011;16877;48.810;9.282;2023-05-29T05:30:35;6.40;;;5.10;;
1366;SDS011;16877;48.810;9.282;2023-05-29T05:33:02;6.40;;;4.60;;
1366;SDS011;16877;48.810;9.282;2023-05-29T05:35:29;6.57;;;5.00;;
1366;SDS011;16877;48.810;9.282;2023-05-29T05:37:57;5.77;;;4.73;;
1366;SDS011;16877;48.810;9.282;2023-05-29T05:40:27;5.57;;;4.97;;
1366;SDS011;16877;48.810;9.282;2023-05-29T05:42:54;8.27;;;5.03;;
1366;SDS011;16877;48.810;9.282;2023-05-29T05:45:21;7.03;;;5.30;;
1366;SDS011;16877;48.810;9.282;2023-05-29T05:47:51;5.60;;;4.83;;
1366;SDS011;16877;48.810;9.282;2023-05-29T05:50:18;5.40;;;4.70;;
1366;SDS011;16877;48.810;9.282;2023-05-29T05:52:46;5.47;;;4.60;;
1366;SDS011;16877;48.810;9.282;2023-05-29T05:55:14;4.67;;;4.17;;
1366;SDS011;16877;48.810;9.282;2023-05-29T05:57:44;6.07;;;4.30;;
1366;SDS011;16877;48.810;9.282;2023-05-29T06:00:12;7.00;;;5.37;;
1366;SDS011;16877;48.810;9.282;2023-05-29T06:02:41;7.00;;;5.13;;
1366;SDS011;16877;48.810;9.282;2023-05-29T06:05:10;6.50;;;4.70;;
1366;SDS011;16877;48.810;9.282;2023-05-29T06:07:37;4.57;;;4.07;;
1366;SDS011;16877;48.810;9.282;2023-05-29T06:10:04;5.60;;;4.37;;
1366;SDS011;16877;48.810;9.282;2023-05-29T06:12:33;4.33;;;3.63;;
1366;SDS011;16877;48.810;9.282;2023-05-29T06:15:03;5.20;;;4.20;;
1366;SDS011;16877;48.810;9.282;2023-05-29T06:17:32;5.23;;;4.57;;
1366;SDS011;16877;48.810;9.282;2023-05-29T06:20:00;6.53;;;5.37;;
1366;SDS011;16877;48.810;9.282;2023-05-29T06:22:29;5.10;;;3.77;;
1366;SDS011;16877;48.810;9.282;2023-05-29T06:24:58;5.20;;;3.60;;
1366;SDS011;16877;48.810;9.282;2023-05-29T06:27:25;5.90;;;3.93;;
1366;SDS011;16877;48.810;9.282;2023-05-29T06:29:53;5.70;;;4.67;;
1366;SDS011;16877;48.810;9.282;2023-05-29T06:32:25;4.40;;;3.90;;
1366;SDS011;16877;48.810;9.282;2023-05-29T06:34:53;5.33;;;3.50;;
1366;SDS011;16877;48.810;9.282;2023-05-29T06:37:21;4.90;;;3.73;;
1366;SDS011;16877;48.810;9.282;2023-05-29T06:39:49;4.57;;;3.53;;
1366;SDS011;16877;48.810;9.282;2023-05-29T06:42:16;4.70;;;3.70;;
1366;SDS011;16877;48.810;9.282;2023-05-29T06:44:47;5.80;;;3.70;;
1366;SDS011;16877;48.810;9.282;2023-05-29T06:47:16;4.27;;;3.70;;
1366;SDS011;16877;48.810;9.282;2023-05-29T06:49:46;4.97;;;3.70;;
1366;SDS011;16877;48.810;9.282;2023-05-29T06:52:13;5.00;;;4.30;;
1366;SDS011;16877;48.810;9.282;2023-05-29T06:54:41;3.60;;;3.20;;
1366;SDS011;16877;48.810;9.282;2023-05-29T06:57:08;4.77;;;4.03;;
1366;SDS011;16877;48.810;9.282;2023-05-29T06:59:36;6.07;;;4.00;;
1366;SDS011;16877;48.810;9.282;2023-05-29T07:02:03;5.30;;;3.90;;
1366;SDS011;16877;48.810;9.282;2023-05-29T07:04:31;5.07;;;3.97;;
1366;SDS011;16877;48.810;9.282;2023-05-29T07:07:00;7.70;;;3.97;;
1366;SDS011;16877;48.810;9.282;2023-05-29T07:09:28;4.70;;;4.00;;
1366;SDS011;16877;48.810;9.282;2023-05-29T07:11:55;5.10;;;3.97;;
1366;SDS011;16877;48.810;9.282;2023-05-29T07:14:23;6.00;;;4.13;;
1366;SDS011;16877;48.810;9.282;2023-05-29T07:16:50;4.70;;;3.40;;
1366;SDS011;16877;48.810;9.282;2023-05-29T07:19:19;4.00;;;3.30;;
1366;SDS011;16877;48.810;9.282;2023-05-29T07:21:46;4.30;;;3.90;;
1366;SDS011;16877;48.810;9.282;2023-05-29T07:24:19;4.63;;;3.87;;
1366;SDS011;16877;48.810;9.282;2023-05-29T07:26:47;6.00;;;4.90;;
1366;SDS011;16877;48.810;9.282;2023-05-29T07:29:15;4.37;;;3.50;;
1366;SDS011;16877;48.810;9.282;2023-05-29T07:31:45;5.13;;;4.10;;
1366;SDS011;16877;48.810;9.282;2023-05-29T07:34:13;4.57;;;3.50;;
1366;SDS011;16877;48.810;9.282;2023-05-29T07:36:55;4.63;;;3.60;;
1366;SDS011;16877;48.810;9.282;2023-05-29T07:39:25;4.70;;;3.70;;
1366;SDS011;16877;48.810;9.282;2023-05-29T07:41:53;5.13;;;3.87;;
1366;SDS011;16877;48.810;9.282;2023-05-29T07:44:20;4.60;;;3.57;;
1366;SDS011;16877;48.810;9.282;2023-05-29T07:46:58;5.63;;;3.90;;
1366;SDS011;16877;48.810;9.282;2023-05-29T07:49:25;5.00;;;4.03;;
1366;SDS011;16877;48.810;9.282;2023-05-29T07:51:57;5.80;;;4.60;;
1366;SDS011;16877;48.810;9.282;2023-05-29T07:54:41;4.90;;;3.83;;
1366;SDS011;16877;48.810;9.282;2023-05-29T07:57:08;4.67;;;4.13;;
1366;SDS011;16877;48.810;9.282;2023-05-29T07:59:40;5.17;;;4.07;;
1366;SDS011;16877;48.810;9.282;2023-05-29T08:02:08;6.30;;;4.10;;
1366;SDS011;16877;48.810;9.282;2023-05-29T08:04:39;4.33;;;3.77;;
1366;SDS011;16877;48.810;9.282;2023-05-29T08:07:07;6.47;;;4.47;;
1366;SDS011;16877;48.810;9.282;2023-05-29T08:09:50;6.20;;;4.33;;
1366;SDS011;16877;48.810;9.282;2023-05-29T08:12:18;5.20;;;4.70;;
1366;SDS011;16877;48.810;9.282;2023-05-29T08:14:45;6.00;;;4.07;;
1366;SDS011;16877;48.810;9.282;2023-05-29T08:17:13;5.07;;;4.30;;
1366;SDS011;16877;48.810;9.282;2023-05-29T08:19:45;6.13;;;3.90;;
1366;SDS011;16877;48.810;9.282;2023-05-29T08:22:13;5.33;;;4.50;;
1366;SDS011;16877;48.810;9.282;2023-05-29T08:24:41;5.70;;;4.63;;
1366;SDS011;16877;48.810;9.282;2023-05-29T08:27:10;5.37;;;4.70;;
1366;SDS011;16877;48.810;9.282;2023-05-29T08:29:39;4.90;;;3.80;;
1366;SDS011;16877;48.810;9.282;2023-05-29T08:32:07;5.70;;;4.70;;
1366;SDS011;16877;48.810;9.282;2023-05-29T08:34:35;5.27;;;4.20;;
1366;SDS011;16877;48.810;9.282;2023-05-29T08:37:02;5.30;;;4.77;;
1366;SDS011;16877;48.810;9.282;2023-05-29T08:39:32;5.37;;;4.17;;
1366;SDS011;16877;48.810;9.282;2023-05-29T08:42:01;5.73;;;4.60;;
1366;SDS011;16877;48.810;9.282;2023-05-29T08:44:36;4.70;;;3.87;;
1366;SDS011;16877;48.810;9.282;2023-05-29T08:47:06;5.03;;;4.30;;
1366;SDS011;16877;48.810;9.282;2023-05-29T08:49:37;4.33;;;3.87;;
1366;SDS011;16877;48.810;9.282;2023-05-29T08:52:11;7.03;;;4.23;;
1366;SDS011;16877;48.810;9.282;2023-05-29T08:54:43;5.17;;;4.50;;
1366;SDS011;16877;48.810;9.282;2023-05-29T08:57:11;5.10;;;4.40;;
1366;SDS011;16877;48.810;9.282;2023-05-29T08:59:55;4.93;;;4.40;;
1366;SDS011;16877;48.810;9.282;2023-05-29T09:02:37;5.93;;;4.20;;
1366;SDS011;16877;48.810;9.282;2023-05-29T09:05:05;6.00;;;4.50;;
1366;SDS011;16877;48.810;9.282;2023-05-29T09:07:35;4.77;;;4.30;;
1366;SDS011;16877;48.810;9.282;2023-05-29T09:10:04;5.50;;;4.40;;
1366;SDS011;16877;48.810;9.282;2023-05-29T09:12:31;5.47;;;4.63;;
1366;SDS011;16877;48.810;9.282;2023-05-29T09:15:01;7.00;;;4.33;;
1366;SDS011;16877;48.810;9.282;2023-05-29T09:17:30;5.90;;;4.60;;
1366;SDS011;16877;48.810;9.282;2023-05-29T09:19:58;5.67;;;5.07;;
1366;SDS011;16877;48.810;9.282;2023-05-29T09:22:25;5.60;;;4.07;;
1366;SDS011;16877;48.810;9.282;2023-05-29T09:25:08;5.00;;;4.27;;
1366;SDS011;16877;48.810;9.282;2023-05-29T09:27:38;4.80;;;4.17;;
1366;SDS011;16877;48.810;9.282;2023-05-29T09:30:11;7.07;;;4.37;;
1366;SDS011;16877;48.810;9.282;2023-05-29T09:33:00;4.70;;;3.60;;
1366;SDS011;16877;48.810;9.282;2023-05-29T09:35:32;6.40;;;4.57;;
1366;SDS011;16877;48.810;9.282;2023-05-29T09:38:00;5.33;;;4.60;;
1366;SDS011;16877;48.810;9.282;2023-05-29T09:40:29;7.40;;;4.50;;
1366;SDS011;16877;48.810;9.282;2023-05-29T09:43:02;6.63;;;4.73;;
1366;SDS011;16877;48.810;9.282;2023-05-29T09:45:37;5.90;;;4.67;;
1366;SDS011;16877;48.810;9.282;2023-05-29T09:48:06;6.67;;;5.07;;
1366;SDS011;16877;48.810;9.282;2023-05-29T09:50:34;6.77;;;4.53;;
1366;SDS011;16877;48.810;9.282;2023-05-29T09:53:01;5.87;;;4.20;;
1366;SDS011;16877;48.810;9.282;2023-05-29T09:55:44;5.57;;;4.50;;
1366;SDS011;16877;48.810;9.282;2023-05-29T09:58:11;6.30;;;4.80;;
1366;SDS011;16877;48.810;9.282;2023-05-29T10:00:45;6.90;;;4.00;;
1366;SDS011;16877;48.810;9.282;2023-05-29T10:03:14;5.27;;;4.23;;
1366;SDS011;16877;48.810;9.282;2023-05-29T10:05:42;5.27;;;4.67;;
1366;SDS011;16877;48.810;9.282;2023-05-29T10:08:11;5.57;;;4.30;;
1366;SDS011;16877;48.810;9.282;2023-05-29T10:10:52;5.30;;;4.20;;
1366;SDS011;16877;48.810;9.282;2023-05-29T10:13:25;4.80;;;3.97;;
1366;SDS011;16877;48.810;9.282;2023-05-29T10:16:13;4.77;;;4.27;;
1366;SDS011;16877;48.810;9.282;2023-05-29T10:18:42;5.73;;;4.40;;
1366;SDS011;16877;48.810;9.282;2023-05-29T10:21:12;5.10;;;3.90;;
1366;SDS011;16877;48.810;9.282;2023-05-29T10:23:40;5.70;;;4.63;;
1366;SDS011;16877;48.810;9.282;2023-05-29T10:26:15;6.97;;;4.10;;
1366;SDS011;16877;48.810;9.282;2023-05-29T10:28:50;4.70;;;4.00;;
1366;SDS011;16877;48.810;9.282;2023-05-29T10:31:27;5.03;;;3.60;;
1366;SDS011;16877;48.810;9.282;2023-05-29T10:34:02;4.60;;;3.60;;
1366;SDS011;16877;48.810;9.282;2023-05-29T10:36:44;7.60;;;4.73;;
1366;SDS011;16877;48.810;9.282;2023-05-29T10:39:20;5.90;;;4.40;;
1366;SDS011;16877;48.810;9.282;2023-05-29T10:41:47;5.50;;;4.67;;
1366;SDS011;16877;48.810;9.282;2023-05-29T10:47:07;6.10;;;4.90;;
1366;SDS011;16877;48.810;9.282;2023-05-29T10:49:37;6.17;;;4.53;;
1366;SDS011;16877;48.810;9.282;2023-05-29T10:52:19;5.23;;;4.37;;
1366;SDS011;16877;48.810;9.282;2023-05-29T10:54:51;6.17;;;4.43;;
1366;SDS011;16877;48.810;9.282;2023-05-29T10:57:20;5.80;;;5.20;;
1366;SDS011;16877;48.810;9.282;2023-05-29T10:59:59;4.40;;;4.00;;
1366;SDS011;16877;48.810;9.282;2023-05-29T11:02:34;4.40;;;3.77;;
1366;SDS011;16877;48.810;9.282;2023-05-29T11:05:06;4.43;;;3.40;;
1366;SDS011;16877;48.810;9.282;2023-05-29T11:07:58;4.30;;;3.80;;
1366;SDS011;16877;48.810;9.282;2023-05-29T11:10:45;5.50;;;4.13;;
1366;SDS011;16877;48.810;9.282;2023-05-29T11:13:23;6.10;;;3.90;;
1366;SDS011;16877;48.810;9.282;2023-05-29T11:16:04;4.77;;;3.77;;
1366;SDS011;16877;48.810;9.282;2023-05-29T11:18:40;4.97;;;3.97;;
1366;SDS011;16877;48.810;9.282;2023-05-29T11:23:58;5.00;;;4.40;;
1366;SDS011;16877;48.810;9.282;2023-05-29T11:26:28;6.57;;;3.93;;
1366;SDS011;16877;48.810;9.282;2023-05-29T11:28:58;5.07;;;3.80;;
1366;SDS011;16877;48.810;9.282;2023-05-29T11:31:26;5.53;;;4.40;;
1366;SDS011;16877;48.810;9.282;2023-05-29T11:34:00;5.25;;;4.22;;
1366;SDS011;16877;48.810;9.282;2023-05-29T11:36:31;3.97;;;3.10;;
1366;SDS011;16877;48.810;9.282;2023-05-29T11:39:02;4.88;;;3.97;;
1366;SDS011;16877;48.810;9.282;2023-05-29T11:41:32;4.20;;;3.60;;
1366;SDS011;16877;48.810;9.282;2023-05-29T11:44:01;4.13;;;2.97;;
1366;SDS011;16877;48.810;9.282;2023-05-29T11:46:31;4.30;;;3.55;;
1366;SDS011;16877;48.810;9.282;2023-05-29T11:49:01;5.38;;;4.22;;
1366;SDS011;16877;48.810;9.282;2023-05-29T11:51:28;6.00;;;3.63;;
1366;SDS011;16877;48.810;9.282;2023-05-29T11:53:56;4.18;;;3.72;;
1366;SDS011;16877;48.810;9.282;2023-05-29T11:56:24;4.47;;;3.30;;
1366;SDS011;16877;48.810;9.282;2023-05-29T11:58:53;4.78;;;3.08;;
1366;SDS011;16877;48.810;9.282;2023-05-29T12:01:24;4.20;;;3.53;;
1366;SDS011;16877;48.810;9.282;2023-05-29T12:03:53;4.50;;;3.53;;
1366;SDS011;16877;48.810;9.282;2023-05-29T12:06:32;5.50;;;3.85;;
1366;SDS011;16877;48.810;9.282;2023-05-29T12:09:03;4.15;;;3.40;;
1366;SDS011;16877;48.810;9.282;2023-05-29T12:11:30;4.90;;;3.90;;
1366;SDS011;16877;48.810;9.282;2023-05-29T12:13:59;4.15;;;3.67;;
1366;SDS011;16877;48.810;9.282;2023-05-29T12:16:27;5.22;;;3.70;;
1366;SDS011;16877;48.810;9.282;2023-05-29T12:18:57;4.90;;;3.70;;
1366;SDS011;16877;48.810;9.282;2023-05-29T12:21:26;4.57;;;3.08;;
1366;SDS011;16877;48.810;9.282;2023-05-29T12:23:55;3.70;;;3.20;;
1366;SDS011;16877;48.810;9.282;2023-05-29T12:26:32;7.43;;;3.75;;
1366;SDS011;16877;48.810;9.282;2023-05-29T12:29:02;4.38;;;3.47;;
1366;SDS011;16877;48.810;9.282;2023-05-29T12:31:30;4.65;;;3.50;;
1366;SDS011;16877;48.810;9.282;2023-05-29T12:33:59;4.60;;;3.45;;
1366;SDS011;16877;48.810;9.282;2023-05-29T12:36:28;4.32;;;3.60;;
1366;SDS011;16877;48.810;9.282;2023-05-29T12:38:57;3.70;;;3.00;;
1366;SDS011;16877;48.810;9.282;2023-05-29T12:41:25;3.80;;;3.20;;
1366;SDS011;16877;48.810;9.282;2023-05-29T12:44:08;3.55;;;2.95;;
1366;SDS011;16877;48.810;9.282;2023-05-29T12:46:55;4.30;;;3.90;;
1366;SDS011;16877;48.810;9.282;2023-05-29T12:49:23;4.40;;;3.53;;
1366;SDS011;16877;48.810;9.282;2023-05-29T12:51:54;4.57;;;3.85;;
1366;SDS011;16877;48.810;9.282;2023-05-29T12:54:23;5.13;;;4.18;;
1366;SDS011;16877;48.810;9.282;2023-05-29T12:56:51;5.20;;;3.50;;
1366;SDS011;16877;48.810;9.282;2023-05-29T12:59:18;5.10;;;3.78;;
1366;SDS011;16877;48.810;9.282;2023-05-29T13:02:00;4.82;;;3.83;;
1366;SDS011;16877;48.810;9.282;2023-05-29T13:04:28;5.15;;;3.67;;
1366;SDS011;16877;48.810;9.282;2023-05-29T13:06:55;4.93;;;3.35;;
1366;SDS011;16877;48.810;9.282;2023-05-29T13:09:28;4.35;;;3.80;;
1366;SDS011;16877;48.810;9.282;2023-05-29T13:11:56;4.53;;;3.80;;
1366;SDS011;16877;48.810;9.282;2023-05-29T13:14:24;7.07;;;3.92;;
1366;SDS011;16877;48.810;9.282;2023-05-29T13:16:51;5.55;;;3.70;;
1366;SDS011;16877;48.810;9.282;2023-05-29T13:19:19;4.38;;;3.70;;
1366;SDS011;16877;48.810;9.282;2023-05-29T13:21:46;5.47;;;3.15;;
1366;SDS011;16877;48.810;9.282;2023-05-29T13:24:15;4.32;;;3.72;;
1366;SDS011;16877;48.810;9.282;2023-05-29T13:26:47;7.20;;;3.85;;
1366;SDS011;16877;48.810;9.282;2023-05-29T13:29:15;4.30;;;3.88;;
1366;SDS011;16877;48.810;9.282;2023-05-29T13:31:43;5.25;;;4.07;;
1366;SDS011;16877;48.810;9.282;2023-05-29T13:34:10;4.68;;;3.63;;
1366;SDS011;16877;48.810;9.282;2023-05-29T13:36:38;3.75;;;3.05;;
1366;SDS011;16877;48.810;9.282;2023-05-29T13:39:05;5.78;;;4.40;;
1366;SDS011;16877;48.810;9.282;2023-05-29T13:41:33;4.30;;;3.78;;
1366;SDS011;16877;48.810;9.282;2023-05-29T13:44:02;5.10;;;3.72;;
1366;SDS011;16877;48.810;9.282;2023-05-29T13:46:44;4.88;;;3.40;;
1366;SDS011;16877;48.810;9.282;2023-05-29T13:49:11;4.13;;;3.72;;
1366;SDS011;16877;48.810;9.282;2023-05-29T13:51:43;4.18;;;3.13;;
1366;SDS011;16877;48.810;9.282;2023-05-29T13:54:12;4.18;;;3.70;;
1366;SDS011;16877;48.810;9.282;2023-05-29T13:56:55;7.10;;;3.45;;
1366;SDS011;16877;48.810;9.282;2023-05-29T13:59:25;4.68;;;3.50;;
1366;SDS011;16877;48.810;9.282;2023-05-29T14:01:52;4.00;;;3.28;;
1366;SDS011;16877;48.810;9.282;2023-05-29T14:04:19;3.72;;;3.22;;
1366;SDS011;16877;48.810;9.282;2023-05-29T14:06:49;5.00;;;3.72;;
1366;SDS011;16877;48.810;9.282;2023-05-29T14:09:16;4.80;;;3.92;;
1366;SDS011;16877;48.810;9.282;2023-05-29T14:11:52;4.32;;;3.42;;
1366;SDS011;16877;48.810;9.282;2023-05-29T14:14:22;4.28;;;3.75;;
1366;SDS011;16877;48.810;9.282;2023-05-29T14:16:52;4.22;;;3.53;;
1366;SDS011;16877;48.810;9.282;2023-05-29T14:19:20;3.67;;;3.20;;
1366;SDS011;16877;48.810;9.282;2023-05-29T14:21:48;4.43;;;3.63;;
1366;SDS011;16877;48.810;9.282;2023-05-29T14:24:16;4.60;;;3.90;;
1366;SDS011;16877;48.810;9.282;2023-05-29T14:26:45;5.50;;;4.18;;
1366;SDS011;16877;48.810;9.282;2023-05-29T14:29:13;4.35;;;3.85;;
1366;SDS011;16877;48.810;9.282;2023-05-29T14:31:40;4.45;;;3.50;;
1366;SDS011;16877;48.810;9.282;2023-05-29T14:34:10;4.85;;;3.22;;
1366;SDS011;16877;48.810;9.282;2023-05-29T14:36:40;4.95;;;3.78;;
1366;SDS011;16877;48.810;9.282;2023-05-29T14:39:09;4.25;;;3.70;;
1366;SDS011;16877;48.810;9.282;2023-05-29T14:41:37;4.38;;;3.72;;
1366;SDS011;16877;48.810;9.282;2023-05-29T14:44:19;3.95;;;3.47;;
1366;SDS011;16877;48.810;9.282;2023-05-29T14:46:47;4.25;;;3.85;;
1366;SDS011;16877;48.810;9.282;2023-05-29T14:49:16;3.97;;;3.58;;
1366;SDS011;16877;48.810;9.282;2023-05-29T14:51:44;4.07;;;3.67;;
1366;SDS011;16877;48.810;9.282;2023-05-29T14:54:11;4.47;;;3.60;;
1366;SDS011;16877;48.810;9.282;2023-05-29T14:56:54;4.47;;;3.58;;
1366;SDS011;16877;48.810;9.282;2023-05-29T14:59:22;3.97;;;3.42;;
1366;SDS011;16877;48.810;9.282;2023-05-29T15:02:04;4.18;;;3.42;;
1366;SDS011;16877;48.810;9.282;2023-05-29T15:04:34;4.57;;;3.63;;
1366;SDS011;16877;48.810;9.282;2023-05-29T15:07:03;4.82;;;3.70;;
1366;SDS011;16877;48.810;9.282;2023-05-29T15:09:31;3.97;;;3.17;;
1366;SDS011;16877;48.810;9.282;2023-05-29T15:11:59;4.50;;;3.58;;
1366;SDS011;16877;48.810;9.282;2023-05-29T15:14:28;3.55;;;3.00;;
1366;SDS011;16877;48.810;9.282;2023-05-29T15:16:57;4.10;;;3.60;;
1366;SDS011;16877;48.810;9.282;2023-05-29T15:19:28;3.47;;;3.00;;
1366;SDS011;16877;48.810;9.282;2023-05-29T15:21:58;3.63;;;3.28;;
1366;SDS011;16877;48.810;9.282;2023-05-29T15:24:28;3.72;;;2.80;;